< < Back
Terminal Aerodrome Forecast


Current Version              Previous Versions:   1  2  3  4  5  6  7  8  9  

Terminal Aerodrome Forecast

236
FTUS42 KFFC 282324
TAFAHN
TAF
KAHN 282324Z 2900/2924 31010KT P6SM SKC
     FM290300 VRB03KT P6SM SKC
     FM290900 09003KT P6SM SKC
     FM291600 13006KT P6SM SKC
     FM292100 16006KT P6SM SCT050=

Latest METAR

404
SAUS70 KWBC 290600
MTRAHN
METAR KAHN 290551Z AUTO 00000KT 10SM CLR M01/M06 A3028 RMK AO2 SLP258
T10111056 10089 21017 51017


USA.gov is the U.S. government's official web portal to all federal, state and local government web resources and services.